Time;durP1;ratioP1;P1;durP2;ratioP2;P2;SDS_P1;SDS_P2;PMS_P1;PMS_P2;Temp;Humidity;BMP_temperature;BMP_pressure;BME280_temperature;BME280_humidity;BME280_pressure;Samples;Min_cycle;Max_cycle;Signal;HPM_P1;HPM_P2
2023/08/14 00:01:27;;;;;;;0.65;0.20;;;;;;;18.73;100.00;99275.78;7396785;19;20015;-62
2023/08/14 00:03:53;;;;;;;0.52;0.43;;;;;;;30.40;96.73;99251.59;7393121;19;20002;-62
2023/08/14 00:06:19;;;;;;;0.10;0.00;;;;;;;37.16;58.58;99247.97;7394556;19;20010;-62
2023/08/14 00:08:45;;;;;;;0.10;0.00;;;;;;;39.09;48.62;99238.09;7392987;19;20470;-61
2023/08/14 00:11:11;;;;;;;0.63;0.20;;;;;;;40.01;44.53;99242.31;7391098;19;20022;-61
2023/08/14 00:13:52;;;;;;;0.35;0.20;;;;;;;37.05;50.74;99242.50;7399489;19;20014;-61
2023/08/14 00:16:18;;;;;;;1.38;0.40;;;;;;;27.09;92.21;99268.31;7395483;19;20518;-61
2023/08/14 00:18:45;;;;;;;0.17;0.17;;;;;;;21.49;100.00;99266.75;7396038;19;20381;-60
2023/08/14 00:21:12;;;;;;;2.40;0.20;;;;;;;22.81;100.00;99254.81;7394452;19;20013;-60
2023/08/14 00:23:38;;;;;;;6.85;0.32;;;;;;;20.48;100.00;99262.66;7392391;19;20018;-59
2023/08/14 00:26:05;;;;;;;0.17;0.10;;;;;;;19.90;100.00;99265.28;7398185;19;20015;-59
2023/08/14 00:28:31;;;;;;;0.10;0.10;;;;;;;19.64;100.00;99249.28;7392426;19;20019;-59
2023/08/14 00:30:58;;;;;;;3.03;0.30;;;;;;;21.20;100.00;99248.41;7391022;19;20010;-59
2023/08/14 00:33:24;;;;;;;0.38;0.28;;;;;;;19.57;100.00;99249.97;7389637;19;20014;-59
2023/08/14 00:35:51;;;;;;;0.20;0.20;;;;;;;19.21;100.00;99235.66;7393413;19;20340;-59
2023/08/14 00:38:17;;;;;;;0.10;0.10;;;;;;;18.58;100.00;99238.94;7392735;19;20015;-59
2023/08/14 00:40:43;;;;;;;0.13;0.13;;;;;;;18.68;100.00;99237.94;7393149;19;20014;-59
2023/08/14 00:43:09;;;;;;;0.17;0.10;;;;;;;18.93;100.00;99224.28;7393627;19;20010;-59
2023/08/14 00:45:36;;;;;;;0.50;0.10;;;;;;;18.89;100.00;99215.41;7396928;19;20070;-59
2023/08/14 00:48:03;;;;;;;3.20;0.35;;;;;;;19.21;100.00;99229.28;7393739;19;20014;-60
2023/08/14 00:50:30;;;;;;;0.82;0.30;;;;;;;18.97;100.00;99212.66;7391204;19;20090;-60
2023/08/14 00:52:59;;;;;;;0.85;0.10;;;;;;;33.78;75.56;99194.38;7393851;19;20014;-59
2023/08/14 00:55:26;;;;;;;2.28;0.60;;;;;;;28.58;88.82;99187.84;7394288;19;20062;-59
2023/08/14 00:57:53;;;;;;;2.55;0.17;;;;;;;22.94;100.00;99189.25;7392479;19;20048;-59
2023/08/14 01:00:19;;;;;;;0.13;0.10;;;;;;;32.34;83.76;99179.50;7393737;19;20010;-59
2023/08/14 01:02:48;;;;;;;8.82;0.93;;;;;;;23.61;100.00;99182.31;7391342;19;20095;-59
2023/08/14 01:05:15;;;;;;;0.40;0.32;;;;;;;26.82;100.00;99177.81;7392658;19;20006;-59
2023/08/14 01:07:41;;;;;;;0.08;0.00;;;;;;;35.52;64.22;99161.78;7391912;19;20015;-59
2023/08/14 01:10:10;;;;;;;6.53;0.60;;;;;;;26.24;97.36;99179.19;7391104;19;20018;-59
2023/08/14 01:13:02;;;;;;;0.47;0.25;;;;;;;24.92;100.00;99184.66;7395615;19;20014;-59
2023/08/14 01:15:32;;;;;;;0.20;0.20;;;;;;;35.71;67.43;99176.22;7391352;19;20011;-59
2023/08/14 01:18:03;;;;;;;0.10;0.10;;;;;;;36.03;64.86;99167.97;7393749;19;20013;-59
2023/08/14 01:20:32;;;;;;;0.10;0.10;;;;;;;28.83;78.85;99170.06;7393198;19;20027;-60
2023/08/14 01:23:11;;;;;;;3.60;0.60;;;;;;;25.23;100.00;99174.28;7395970;19;20483;-59
2023/08/14 01:25:38;;;;;;;2.25;0.57;;;;;;;20.26;100.00;99178.44;7394266;19;20017;-60
2023/08/14 01:28:06;;;;;;;0.40;0.30;;;;;;;19.43;100.00;99166.59;7393206;19;20011;-60
2023/08/14 01:30:32;;;;;;;1.55;0.38;;;;;;;20.97;100.00;99175.47;7391004;19;20011;-60
2023/08/14 01:32:58;;;;;;;0.60;0.47;;;;;;;21.36;100.00;99167.75;7394233;19;20451;-59
2023/08/14 01:35:30;;;;;;;0.10;0.00;;;;;;;22.19;100.00;99176.91;7392398;19;20074;-59
2023/08/14 01:38:19;;;;;;;0.80;0.28;;;;;;;34.54;75.44;99155.72;7390373;19;20032;-59
2023/08/14 01:40:56;;;;;;;1.85;0.47;;;;;;;26.49;100.00;99167.44;7391533;19;20066;-59
2023/08/14 01:43:27;;;;;;;2.25;0.30;;;;;;;33.13;73.22;99155.25;7390621;19;20022;-59
2023/08/14 01:45:54;;;;;;;;;;;;;;;31.23;64.67;99154.25;7404985;19;20014;-59
2023/08/14 01:48:25;;;;;;;0.40;0.40;;;;;;;24.28;100.00;99156.63;7397698;19;19922;-59
2023/08/14 01:50:55;;;;;;;7.18;0.43;;;;;;;22.16;100.00;99152.53;7396255;19;20040;-59
2023/08/14 01:53:22;;;;;;;1.23;0.52;;;;;;;23.04;100.00;99150.38;7398368;19;20026;-58
2023/08/14 01:55:49;;;;;;;1.42;0.28;;;;;;;20.08;100.00;99146.28;7400101;19;20024;-58
2023/08/14 01:58:15;;;;;;;0.57;0.25;;;;;;;21.65;100.00;99150.00;7397656;19;20007;-59
2023/08/14 02:00:41;;;;;;;0.20;0.10;;;;;;;21.43;100.00;99156.44;7399793;19;20018;-59
2023/08/14 02:03:08;;;;;;;5.25;0.77;;;;;;;21.10;100.00;99149.06;7397655;19;20022;-59
2023/08/14 02:05:34;;;;;;;0.50;0.50;;;;;;;20.93;100.00;99143.19;7397598;19;20010;-59
2023/08/14 02:08:00;;;;;;;0.55;0.43;;;;;;;20.94;100.00;99139.78;7404366;19;20469;-59
2023/08/14 02:10:27;;;;;;;2.33;0.45;;;;;;;22.09;100.00;99139.13;7399891;19;20011;-59
2023/08/14 02:12:53;;;;;;;1.45;0.40;;;;;;;23.42;100.00;99133.03;7398378;19;20006;-59
2023/08/14 02:15:20;;;;;;;14.90;0.95;;;;;;;22.33;100.00;99126.34;7398999;19;20006;-59
2023/08/14 02:17:46;;;;;;;0.10;0.10;;;;;;;23.79;100.00;99112.78;7398916;19;20086;-59
2023/08/14 02:20:12;;;;;;;0.35;0.20;;;;;;;25.66;100.00;99117.72;7398324;19;20112;-59
2023/08/14 02:22:38;;;;;;;7.53;0.35;;;;;;;21.65;100.00;99115.22;7396125;19;20066;-59
2023/08/14 02:25:06;;;;;;;1.77;0.38;;;;;;;21.16;100.00;99107.16;7397729;19;20014;-59
2023/08/14 02:27:33;;;;;;;2.08;0.50;;;;;;;22.73;100.00;99095.13;7400709;19;20045;-60
2023/08/14 02:29:59;;;;;;;0.43;0.43;;;;;;;21.90;100.00;99090.63;7399006;19;20353;-60
2023/08/14 02:32:25;;;;;;;2.58;0.50;;;;;;;23.62;100.00;99078.66;7397035;19;20010;-61
2023/08/14 02:34:55;;;;;;;0.70;0.40;;;;;;;22.17;100.00;99080.31;7397228;19;20021;-60
2023/08/14 02:37:23;;;;;;;0.25;0.08;;;;;;;31.25;97.22;99062.28;7396984;19;20030;-59
2023/08/14 02:39:49;;;;;;;0.50;0.05;;;;;;;34.54;63.18;99068.94;7397727;19;20494;-60
2023/08/14 02:42:17;;;;;;;0.93;0.55;;;;;;;37.91;53.95;99061.22;7398967;19;20021;-59
2023/08/14 02:44:43;;;;;;;0.32;0.30;;;;;;;26.81;100.00;99073.44;7400541;19;20014;-59
2023/08/14 02:47:10;;;;;;;0.98;0.22;;;;;;;25.36;100.00;99074.09;7396394;19;20021;-60
2023/08/14 02:49:36;;;;;;;0.82;0.22;;;;;;;24.07;100.00;99063.94;7396174;19;20070;-59
2023/08/14 02:52:02;;;;;;;0.80;0.55;;;;;;;21.62;100.00;99065.34;7396838;19;20010;-58
2023/08/14 02:54:29;;;;;;;0.52;0.50;;;;;;;20.88;100.00;99068.44;7400212;19;20364;-59
2023/08/14 02:56:55;;;;;;;0.10;0.10;;;;;;;20.73;100.00;99062.00;7396231;19;20015;-59
2023/08/14 02:59:22;;;;;;;0.38;0.32;;;;;;;20.53;100.00;99060.13;7396498;19;20022;-59
2023/08/14 03:01:48;;;;;;;0.52;0.20;;;;;;;20.48;100.00;99055.41;7398434;19;20657;-58
2023/08/14 03:04:15;;;;;;;2.60;0.60;;;;;;;20.48;100.00;99052.56;7396951;19;20029;-58
2023/08/14 03:06:42;;;;;;;0.10;0.00;;;;;;;20.74;100.00;99050.16;7399695;19;20018;-58
2023/08/14 03:09:08;;;;;;;0.15;0.10;;;;;;;20.51;100.00;99035.22;7394867;19;20038;-58
2023/08/14 03:11:34;;;;;;;0.15;0.10;;;;;;;20.40;100.00;99039.16;7397880;19;20128;-59
2023/08/14 03:14:00;;;;;;;0.68;0.68;;;;;;;20.34;100.00;99043.47;7396074;19;20014;-58
2023/08/14 03:16:26;;;;;;;0.75;0.38;;;;;;;22.55;100.00;99035.44;7398899;19;20015;-58
2023/08/14 03:18:52;;;;;;;0.57;0.20;;;;;;;21.48;100.00;99039.34;7395597;19;20037;-59
2023/08/14 03:21:18;;;;;;;1.55;0.20;;;;;;;19.96;100.00;99051.84;7397469;19;20014;-58
2023/08/14 03:23:47;;;;;;;0.20;0.20;;;;;;;19.28;100.00;99048.63;7395616;19;20019;-58
2023/08/14 03:26:14;;;;;;;0.25;0.20;;;;;;;22.91;100.00;99045.59;7397350;19;20074;-60
2023/08/14 03:28:40;;;;;;;0.45;0.20;;;;;;;32.21;86.46;99031.16;7395178;19;20365;-59
2023/08/14 03:31:06;;;;;;;0.30;0.10;;;;;;;35.18;66.55;99036.69;7393344;19;20023;-59
2023/08/14 03:33:33;;;;;;;1.13;0.68;;;;;;;36.49;58.91;99038.28;7394493;19;20031;-59
2023/08/14 03:35:59;;;;;;;0.38;0.10;;;;;;;36.96;55.60;99032.47;7395876;19;20074;-58
2023/08/14 03:38:25;;;;;;;0.30;0.15;;;;;;;36.98;52.94;99023.06;7397411;19;20454;-59
2023/08/14 03:40:52;;;;;;;8.68;0.52;;;;;;;36.93;52.07;99016.38;7396514;19;20018;-60
2023/08/14 03:43:18;;;;;;;0.35;0.35;;;;;;;36.83;51.61;99024.78;7394995;19;20023;-60
2023/08/14 03:45:45;;;;;;;4.40;0.85;;;;;;;36.81;51.01;99027.63;7398843;19;20011;-60
2023/08/14 03:48:12;;;;;;;0.30;0.10;;;;;;;34.96;57.00;99027.16;7395459;19;20030;-59
2023/08/14 03:50:38;;;;;;;0.40;0.10;;;;;;;36.49;51.91;99021.59;7392146;19;20024;-59
2023/08/14 03:53:04;;;;;;;1.95;0.30;;;;;;;37.24;49.53;99015.81;7394122;19;20010;-59
2023/08/14 03:55:30;;;;;;;0.30;0.30;;;;;;;36.87;49.47;99019.09;7393859;19;20015;-60
2023/08/14 03:57:57;;;;;;;0.20;0.10;;;;;;;36.75;48.96;99007.16;7395751;19;20088;-59
2023/08/14 04:00:23;;;;;;;0.20;0.20;;;;;;;36.92;48.73;99008.38;7394293;19;20052;-59
2023/08/14 04:02:49;;;;;;;0.10;0.00;;;;;;;37.39;46.82;99010.41;7394344;19;20037;-59
2023/08/14 04:05:15;;;;;;;0.10;0.00;;;;;;;36.46;48.01;99005.56;7395512;19;20100;-59
2023/08/14 04:07:42;;;;;;;0.25;0.10;;;;;;;35.63;50.74;99005.00;7394118;19;20037;-60
2023/08/14 04:10:08;;;;;;;1.02;0.20;;;;;;;29.07;89.89;99013.88;7392491;19;20014;-59
2023/08/14 04:12:34;;;;;;;0.10;0.10;;;;;;;35.08;58.65;99010.28;7397853;19;20073;-59
2023/08/14 04:15:17;;;;;;;2.10;0.40;;;;;;;35.05;57.06;99011.59;7394783;19;20017;-59
2023/08/14 04:17:43;;;;;;;0.55;0.10;;;;;;;38.50;47.12;99003.03;7397694;19;20022;-59
2023/08/14 04:20:10;;;;;;;0.47;0.10;;;;;;;39.41;44.29;98996.19;7397038;19;20010;-59
2023/08/14 04:22:37;;;;;;;2.53;0.90;;;;;;;37.61;46.83;98993.56;7393046;19;20102;-59
2023/08/14 04:25:03;;;;;;;0.52;0.52;;;;;;;37.36;45.95;98998.00;7394209;19;20042;-59
2023/08/14 04:27:30;;;;;;;0.10;0.10;;;;;;;36.66;47.43;98999.63;7393020;19;20358;-59
2023/08/14 04:29:56;;;;;;;2.72;0.85;;;;;;;37.36;46.04;98997.28;7392873;19;20010;-60
2023/08/14 04:32:22;;;;;;;0.20;0.20;;;;;;;36.30;45.94;98999.22;7393754;19;20462;-59
2023/08/14 04:34:49;;;;;;;0.35;0.15;;;;;;;27.78;68.48;98991.41;7392822;19;20014;-59
2023/08/14 04:37:16;;;;;;;0.32;0.17;;;;;;;27.60;98.55;98995.91;7395183;19;20034;-59
2023/08/14 04:39:42;;;;;;;1.10;0.45;;;;;;;27.65;96.96;98989.09;7392790;19;20015;-58
2023/08/14 04:42:08;;;;;;;0.73;0.20;;;;;;;31.85;71.91;98983.28;7396868;19;20025;-58
2023/08/14 04:44:34;;;;;;;1.65;0.73;;;;;;;36.11;55.92;98981.91;7396374;19;20014;-59
2023/08/14 04:47:00;;;;;;;0.20;0.13;;;;;;;35.55;55.28;98975.75;7392168;19;20014;-59
2023/08/14 04:49:29;;;;;;;0.30;0.30;;;;;;;36.90;50.39;98977.13;7393807;19;20015;-59
2023/08/14 04:51:55;;;;;;;0.45;0.20;;;;;;;37.03;48.75;98978.19;7391897;19;20006;-59
2023/08/14 04:54:22;;;;;;;2.47;0.82;;;;;;;37.93;46.10;98971.88;7392759;19;20035;-59
2023/08/14 04:56:48;;;;;;;5.03;1.10;;;;;;;37.91;46.79;98963.09;7392385;19;20018;-58
2023/08/14 04:59:15;;;;;;;0.63;0.10;;;;;;;39.95;42.21;98967.97;7393209;19;20034;-58
2023/08/14 05:01:42;;;;;;;0.47;0.10;;;;;;;38.50;42.73;98973.94;7396365;19;20010;-58
2023/08/14 05:04:08;;;;;;;0.32;0.10;;;;;;;39.23;43.05;98975.44;7391928;19;20014;-58
2023/08/14 05:06:35;;;;;;;0.57;0.20;;;;;;;36.10;46.83;98986.25;7392721;19;20010;-58
2023/08/14 05:09:01;;;;;;;1.65;0.32;;;;;;;31.16;80.21;98988.47;7393461;19;20014;-59
2023/08/14 05:11:27;;;;;;;2.72;0.25;;;;;;;37.06;50.75;98973.91;7392609;19;20029;-59
2023/08/14 05:13:53;;;;;;;2.15;0.38;;;;;;;38.64;46.35;98985.88;7393778;19;20023;-58
2023/08/14 05:16:21;;;;;;;0.20;0.20;;;;;;;35.76;51.85;98977.16;7391937;19;20018;-58
2023/08/14 05:18:48;;;;;;;9.10;0.73;;;;;;;38.49;44.96;98969.53;7392841;19;20022;-58
2023/08/14 05:21:14;;;;;;;1.45;0.30;;;;;;;38.77;43.85;98965.78;7398447;19;20020;-59
2023/08/14 05:23:40;;;;;;;0.82;0.77;;;;;;;39.62;41.70;98968.13;7400311;19;20364;-60
2023/08/14 05:26:06;;;;;;;0.57;0.30;;;;;;;41.85;38.38;98967.38;7399160;19;20025;-59
2023/08/14 05:28:32;;;;;;;0.63;0.20;;;;;;;42.34;36.66;98957.50;7398799;19;20332;-60
2023/08/14 05:30:58;;;;;;;0.10;0.10;;;;;;;40.09;39.30;98967.47;7396924;19;20033;-59
2023/08/14 05:33:25;;;;;;;0.55;0.20;;;;;;;25.10;99.98;98985.88;7400693;19;20015;-59
2023/08/14 05:35:51;;;;;;;0.93;0.15;;;;;;;29.73;75.24;98979.81;7398432;19;20019;-59
2023/08/14 05:38:17;;;;;;;1.55;0.20;;;;;;;25.80;97.10;98978.97;7401102;19;20490;-59
2023/08/14 05:40:43;;;;;;;0.17;0.10;;;;;;;33.18;65.26;98969.34;7401099;19;20010;-60
2023/08/14 05:43:11;;;;;;;0.10;0.10;;;;;;;39.91;46.08;98965.00;7398556;19;20494;-61
2023/08/14 05:45:39;;;;;;;0.17;0.10;;;;;;;25.84;98.05;98974.31;7404397;19;20014;-61
2023/08/14 05:48:06;;;;;;;0.77;0.65;;;;;;;22.95;100.00;98989.91;7397224;19;20357;-61
2023/08/14 05:50:33;;;;;;;0.40;0.30;;;;;;;22.11;100.00;98985.41;7400083;19;20024;-61
2023/08/14 05:53:04;;;;;;;1.05;0.30;;;;;;;21.80;100.00;98996.13;7398633;19;20394;-61
2023/08/14 05:55:36;;;;;;;0.35;0.10;;;;;;;21.61;100.00;98984.50;7400560;19;20015;-61
2023/08/14 05:58:03;;;;;;;0.50;0.00;;;;;;;26.19;100.00;98989.75;7398524;19;20043;-60
2023/08/14 06:00:30;;;;;;;0.10;0.10;;;;;;;24.39;100.00;98988.16;7397915;19;20023;-60
2023/08/14 06:02:57;;;;;;;0.75;0.40;;;;;;;29.84;93.46;98984.78;7403037;19;20015;-60
2023/08/14 06:05:23;;;;;;;1.23;0.00;;;;;;;31.60;84.59;98971.97;7398149;19;20074;-60
2023/08/14 06:07:51;;;;;;;0.20;0.05;;;;;;;38.96;56.08;98967.63;7399497;19;20026;-60
2023/08/14 06:10:18;;;;;;;1.95;0.20;;;;;;;32.13;63.19;98978.94;7397947;19;20018;-60
2023/08/14 06:12:44;;;;;;;0.45;0.20;;;;;;;41.52;43.56;98975.09;7400357;19;20333;-59
2023/08/14 06:15:12;;;;;;;0.50;0.20;;;;;;;34.09;53.65;98979.69;7399736;19;20017;-60
2023/08/14 06:17:39;;;;;;;3.33;0.75;;;;;;;27.87;83.50;98984.84;7397755;19;20010;-59
2023/08/14 06:20:06;;;;;;;0.10;0.10;;;;;;;37.78;56.65;98966.38;7397615;19;20477;-59
2023/08/14 06:22:37;;;;;;;0.57;0.20;;;;;;;40.54;46.00;98960.09;7401275;19;20006;-59
2023/08/14 06:25:04;;;;;;;5.57;0.22;;;;;;;43.16;39.87;98953.44;7398206;19;20019;-59
2023/08/14 06:27:30;;;;;;;0.30;0.25;;;;;;;28.37;84.38;98975.88;7400291;19;20006;-59
2023/08/14 06:29:57;;;;;;;0.10;0.10;;;;;;;24.14;100.00;98981.91;7396022;19;20021;-59
2023/08/14 06:32:23;;;;;;;0.30;0.15;;;;;;;24.47;100.00;98980.28;7399765;19;20057;-60
2023/08/14 06:34:49;;;;;;;0.68;0.30;;;;;;;24.25;100.00;98969.97;7400336;19;20003;-59
2023/08/14 06:37:15;;;;;;;0.10;0.10;;;;;;;25.19;100.00;98968.75;7399651;19;20367;-60
2023/08/14 06:39:41;;;;;;;0.10;0.10;;;;;;;26.28;100.00;98962.53;7400575;19;20458;-60
2023/08/14 06:42:08;;;;;;;0.10;0.10;;;;;;;23.87;100.00;98964.78;7400436;19;20025;-60
2023/08/14 06:44:34;;;;;;;0.10;0.10;;;;;;;29.33;100.00;98954.50;7398379;19;20010;-60
2023/08/14 06:47:01;;;;;;;0.10;0.10;;;;;;;36.67;69.15;98940.13;7398609;19;20014;-60
2023/08/14 06:49:29;;;;;;;0.10;0.10;;;;;;;36.91;62.47;98932.16;7399507;19;20031;-60
2023/08/14 06:51:55;;;;;;;0.85;0.10;;;;;;;24.74;100.00;98941.06;7399239;19;20762;-60
2023/08/14 06:54:22;;;;;;;0.20;0.03;;;;;;;24.62;100.00;98940.16;7399310;19;20498;-60
2023/08/14 06:56:48;;;;;;;3.40;0.55;;;;;;;22.84;100.00;98925.06;7398141;19;20062;-59
2023/08/14 06:59:14;;;;;;;0.10;0.00;;;;;;;33.09;93.36;98918.44;7395951;19;20398;-58
2023/08/14 07:01:41;;;;;;;0.10;0.10;;;;;;;41.11;51.98;98906.72;7393031;19;20017;-58
2023/08/14 07:04:07;;;;;;;0.25;0.25;;;;;;;42.66;45.23;98910.06;7391998;19;20022;-59
2023/08/14 07:06:34;;;;;;;0.13;0.10;;;;;;;42.97;42.96;98914.59;7397416;19;20011;-59
2023/08/14 07:09:00;;;;;;;0.00;0.00;;;;;;;30.98;84.21;98929.97;7395162;19;20074;-60
2023/08/14 07:11:26;;;;;;;0.10;0.10;;;;;;;26.04;100.00;98929.38;7396703;19;20022;-59
2023/08/14 07:13:54;;;;;;;0.10;0.10;;;;;;;26.24;100.00;98931.59;7396355;19;20018;-59
2023/08/14 07:16:20;;;;;;;0.65;0.35;;;;;;;26.13;100.00;98925.78;7398277;19;20006;-59
2023/08/14 07:18:46;;;;;;;0.47;0.10;;;;;;;23.86;100.00;98940.56;7399228;19;20029;-59
2023/08/14 07:21:13;;;;;;;0.43;0.20;;;;;;;33.28;79.97;98923.56;7396718;19;20481;-59
2023/08/14 07:23:39;;;;;;;0.10;0.10;;;;;;;23.09;100.00;98942.03;7396978;19;20018;-59
2023/08/14 07:26:11;;;;;;;0.55;0.10;;;;;;;22.11;100.00;98940.78;7396448;19;20011;-59
2023/08/14 07:28:39;;;;;;;0.10;0.00;;;;;;;21.83;100.00;98938.31;7394605;19;20520;-60
2023/08/14 07:31:05;;;;;;;0.55;0.10;;;;;;;21.34;100.00;98936.06;7396272;19;20029;-59
2023/08/14 07:33:32;;;;;;;0.15;0.00;;;;;;;23.62;100.00;98927.97;7394880;19;20018;-59
2023/08/14 07:35:58;;;;;;;0.10;0.00;;;;;;;23.23;100.00;98926.16;7397136;19;20014;-59
2023/08/14 07:38:28;;;;;;;0.50;0.10;;;;;;;21.51;100.00;98930.50;7393786;19;20420;-59
2023/08/14 07:40:55;;;;;;;0.30;0.10;;;;;;;22.28;100.00;98937.28;7396401;19;20027;-59
2023/08/14 07:43:22;;;;;;;0.03;0.03;;;;;;;34.02;77.31;98917.25;7398342;19;20018;-59
2023/08/14 07:45:49;;;;;;;0.10;0.10;;;;;;;38.98;57.24;98915.22;7400246;19;20394;-60
2023/08/14 07:48:16;;;;;;;0.30;0.30;;;;;;;40.65;53.65;98915.00;7398801;19;20018;-59
2023/08/14 07:50:42;;;;;;;0.10;0.10;;;;;;;26.37;100.00;98932.44;7397904;19;20332;-59
2023/08/14 07:53:10;;;;;;;0.10;0.00;;;;;;;33.28;94.54;98914.91;7396269;19;20018;-59
2023/08/14 07:55:37;;;;;;;0.10;0.10;;;;;;;40.59;54.06;98914.91;7400565;19;20410;-59
2023/08/14 07:58:03;;;;;;;0.00;0.00;;;;;;;41.49;47.42;98918.81;7393188;19;20011;-59
2023/08/14 08:00:31;;;;;;;0.57;0.15;;;;;;;42.20;44.98;98916.41;7394149;19;20355;-60
2023/08/14 08:02:58;;;;;;;0.20;0.20;;;;;;;27.11;100.00;98934.72;7393907;19;20007;-59
2023/08/14 08:05:24;;;;;;;0.15;0.03;;;;;;;38.15;60.17;98916.41;7394822;19;20018;-59
2023/08/14 08:07:50;;;;;;;1.38;0.20;;;;;;;39.55;51.64;98917.72;7398667;19;20355;-59
2023/08/14 08:10:16;;;;;;;0.47;0.15;;;;;;;39.53;49.25;98917.69;7394627;19;20018;-59
2023/08/14 08:12:42;;;;;;;0.00;0.00;;;;;;;38.58;54.64;98915.88;7395604;19;20023;-58
2023/08/14 08:15:09;;;;;;;0.10;0.00;;;;;;;40.46;47.00;98916.94;7392671;19;20021;-58
2023/08/14 08:17:36;;;;;;;0.55;0.00;;;;;;;41.64;44.11;98902.13;7396896;19;20372;-58
2023/08/14 08:20:03;;;;;;;0.28;0.15;;;;;;;41.64;42.77;98910.16;7393028;19;20014;-58
2023/08/14 08:22:29;;;;;;;0.52;0.10;;;;;;;27.78;100.00;98925.56;7394464;19;20019;-58
2023/08/14 08:24:55;;;;;;;0.00;0.00;;;;;;;24.22;100.00;98925.63;7393490;19;20014;-59
2023/08/14 08:27:21;;;;;;;2.65;0.20;;;;;;;24.60;100.00;98914.38;7394196;19;20018;-58
2023/08/14 08:29:47;;;;;;;0.73;0.32;;;;;;;38.63;61.41;98887.59;7395486;19;20010;-59
2023/08/14 08:32:13;;;;;;;0.70;0.30;;;;;;;41.56;48.46;98891.06;7394815;19;20041;-59
2023/08/14 08:34:40;;;;;;;0.47;0.20;;;;;;;43.08;43.60;98903.59;7394407;19;20471;-58
2023/08/14 08:37:06;;;;;;;0.10;0.10;;;;;;;41.26;42.55;98905.44;7392466;19;20463;-58
2023/08/14 08:39:32;;;;;;;0.10;0.00;;;;;;;38.41;58.26;98905.34;7391051;19;20006;-58
2023/08/14 08:41:59;;;;;;;0.60;0.10;;;;;;;28.61;93.29;98916.50;7396381;19;20015;-58
2023/08/14 08:44:26;;;;;;;0.40;0.17;;;;;;;29.37;100.00;98903.84;7391741;19;20026;-58
2023/08/14 08:47:03;;;;;;;0.28;0.28;;;;;;;24.49;100.00;98912.09;7393021;19;20475;-58
2023/08/14 08:49:29;;;;;;;0.57;0.10;;;;;;;30.70;100.00;98893.97;7390998;19;20028;-58
2023/08/14 08:51:58;;;;;;;0.70;0.35;;;;;;;40.00;55.31;98890.03;7391167;19;20015;-58
2023/08/14 08:54:27;;;;;;;0.03;0.03;;;;;;;42.49;46.41;98879.25;7394231;19;20028;-58
2023/08/14 08:56:55;;;;;;;0.10;0.10;;;;;;;23.85;100.00;98905.66;7393461;19;20479;-58
2023/08/14 08:59:22;;;;;;;1.45;0.10;;;;;;;26.10;100.00;98901.28;7393645;19;20021;-58
2023/08/14 09:01:49;;;;;;;0.10;0.10;;;;;;;23.78;100.00;98905.78;7393089;19;20006;-59
2023/08/14 09:04:15;;;;;;;0.20;0.20;;;;;;;22.63;100.00;98902.00;7391738;19;20471;-59
2023/08/14 09:06:41;;;;;;;0.10;0.00;;;;;;;21.29;100.00;98905.13;7396616;19;20010;-59
2023/08/14 09:09:11;;;;;;;0.38;0.00;;;;;;;20.75;100.00;98907.31;7391955;19;20062;-58
2023/08/14 09:11:37;;;;;;;0.10;0.00;;;;;;;20.44;100.00;98905.88;7392486;19;20018;-58
2023/08/14 09:14:03;;;;;;;1.55;0.30;;;;;;;20.19;100.00;98907.72;7393147;19;20086;-58
2023/08/14 09:16:29;;;;;;;0.20;0.10;;;;;;;19.91;100.00;98919.16;7390809;19;20042;-58
2023/08/14 09:18:57;;;;;;;0.10;0.10;;;;;;;19.68;100.00;98902.91;7395085;19;20043;-57
2023/08/14 09:21:25;;;;;;;0.63;0.10;;;;;;;19.51;100.00;98916.81;7391177;19;20022;-57
2023/08/14 09:23:52;;;;;;;0.00;0.00;;;;;;;19.39;100.00;98904.34;7391803;19;20368;-57
2023/08/14 09:26:20;;;;;;;0.85;0.22;;;;;;;19.37;100.00;98898.50;7391099;19;20070;-57
2023/08/14 09:28:48;;;;;;;0.10;0.10;;;;;;;19.37;100.00;98892.88;7394726;19;20010;-58
2023/08/14 09:31:15;;;;;;;1.55;0.30;;;;;;;19.37;100.00;98897.75;7391071;19;20015;-58
2023/08/14 09:33:43;;;;;;;0.65;0.35;;;;;;;19.37;100.00;98906.22;7393287;19;20011;-58
2023/08/14 09:36:12;;;;;;;4.03;0.35;;;;;;;19.36;100.00;98902.63;7391764;19;20010;-58
2023/08/14 09:38:39;;;;;;;0.75;0.35;;;;;;;19.33;100.00;98902.97;7392728;19;20010;-58
2023/08/14 09:41:05;;;;;;;0.10;0.10;;;;;;;19.37;100.00;98904.16;7394635;19;20420;-60
2023/08/14 09:43:32;;;;;;;2.45;0.57;;;;;;;19.34;100.00;98893.97;7390428;19;20011;-60
2023/08/14 09:46:00;;;;;;;0.52;0.25;;;;;;;19.29;100.00;98897.72;7394888;19;20018;-59
2023/08/14 09:48:43;;;;;;;2.15;0.30;;;;;;;19.23;100.00;98887.91;7392482;19;20082;-59
2023/08/14 09:51:14;;;;;;;1.75;0.10;;;;;;;19.10;100.00;98885.94;7388880;19;20015;-59
2023/08/14 09:53:48;;;;;;;0.70;0.20;;;;;;;19.06;100.00;98879.16;7392511;19;20010;-59
2023/08/14 09:56:18;;;;;;;3.72;1.08;;;;;;;19.07;100.00;98887.06;7391092;19;20007;-59
2023/08/14 09:58:46;;;;;;;5.07;0.60;;;;;;;19.11;100.00;98884.63;7392299;19;20070;-59
2023/08/14 10:01:14;;;;;;;0.95;0.10;;;;;;;19.10;100.00;98883.13;7391710;19;20021;-58
2023/08/14 10:03:46;;;;;;;6.95;0.55;;;;;;;19.04;100.00;98873.31;7391932;19;20018;-58
2023/08/14 10:06:15;;;;;;;0.10;0.10;;;;;;;19.10;100.00;98874.66;7395678;19;20014;-58
2023/08/14 10:08:44;;;;;;;1.10;0.30;;;;;;;19.25;100.00;98869.06;7399510;19;20046;-58
2023/08/14 10:11:13;;;;;;;0.80;0.43;;;;;;;19.30;100.00;98875.84;7398233;19;20026;-58
2023/08/14 10:13:46;;;;;;;0.20;0.10;;;;;;;19.36;100.00;98868.75;7399055;19;20010;-58
2023/08/14 10:16:16;;;;;;;1.70;0.17;;;;;;;19.32;100.00;98873.22;7398103;19;20007;-58
2023/08/14 10:18:46;;;;;;;4.80;0.47;;;;;;;19.25;100.00;98860.59;7397510;19;20033;-58
2023/08/14 10:21:15;;;;;;;3.25;0.40;;;;;;;19.26;100.00;98864.94;7399068;19;20078;-58
2023/08/14 10:23:41;;;;;;;0.52;0.20;;;;;;;19.35;100.00;98861.63;7397479;19;20018;-58
2023/08/14 10:26:08;;;;;;;0.80;0.20;;;;;;;19.29;100.00;98852.53;7396636;19;20316;-57
2023/08/14 10:28:35;;;;;;;0.10;0.00;;;;;;;19.20;100.00;98849.47;7396895;19;20007;-58
2023/08/14 10:31:02;;;;;;;0.10;0.10;;;;;;;19.19;100.00;98848.72;7395814;19;20018;-58
2023/08/14 10:33:30;;;;;;;3.22;0.35;;;;;;;19.14;100.00;98846.09;7401616;19;20347;-58
2023/08/14 10:35:58;;;;;;;0.95;0.40;;;;;;;19.08;100.00;98842.69;7398705;19;20020;-57
2023/08/14 10:38:39;;;;;;;0.88;0.10;;;;;;;19.11;100.00;98845.13;7398253;19;20010;-57
2023/08/14 10:41:07;;;;;;;0.73;0.28;;;;;;;19.16;100.00;98844.22;7398295;19;20363;-58
2023/08/14 10:43:33;;;;;;;0.22;0.10;;;;;;;19.11;100.00;98838.72;7402648;19;20010;-58
2023/08/14 10:46:07;;;;;;;0.13;0.13;;;;;;;18.94;100.00;98830.75;7396291;19;20038;-58
2023/08/14 10:48:38;;;;;;;0.40;0.20;;;;;;;18.82;100.00;98838.78;7395063;19;20018;-58
2023/08/14 10:51:08;;;;;;;0.30;0.05;;;;;;;18.69;100.00;98835.34;7397617;19;20011;-58
2023/08/14 10:53:35;;;;;;;0.52;0.22;;;;;;;18.64;100.00;98839.09;7402430;19;20019;-58
2023/08/14 10:56:01;;;;;;;0.10;0.10;;;;;;;18.60;100.00;98833.03;7398051;19;20081;-58
2023/08/14 10:58:31;;;;;;;0.25;0.15;;;;;;;18.54;100.00;98835.25;7396802;19;20017;-59
2023/08/14 11:01:04;;;;;;;2.30;0.22;;;;;;;18.49;100.00;98834.13;7395825;19;20018;-59
2023/08/14 11:03:33;;;;;;;1.25;0.20;;;;;;;18.46;100.00;98834.44;7402144;19;20010;-58
2023/08/14 11:06:00;;;;;;;0.10;0.10;;;;;;;18.49;100.00;98828.47;7396112;19;20006;-58
2023/08/14 11:08:30;;;;;;;0.30;0.30;;;;;;;18.55;100.00;98831.88;7394797;19;20070;-58
2023/08/14 11:10:58;;;;;;;0.70;0.35;;;;;;;18.55;100.00;98825.47;7394522;19;20019;-58
2023/08/14 11:13:28;;;;;;;0.20;0.10;;;;;;;18.60;100.00;98821.75;7400987;19;20006;-58
2023/08/14 11:15:54;;;;;;;0.20;0.10;;;;;;;18.63;100.00;98826.28;7395444;19;20022;-58
2023/08/14 11:18:21;;;;;;;3.53;0.40;;;;;;;18.68;100.00;98808.44;7393815;19;20022;-58
2023/08/14 11:20:47;;;;;;;0.20;0.10;;;;;;;18.68;100.00;98803.56;7397942;19;20010;-58
2023/08/14 11:23:13;;;;;;;0.30;0.03;;;;;;;18.69;100.00;98809.97;7399475;19;20010;-58
2023/08/14 11:25:39;;;;;;;0.30;0.10;;;;;;;18.71;100.00;98810.16;7393637;19;20554;-58
2023/08/14 11:28:06;;;;;;;0.10;0.00;;;;;;;18.60;100.00;98811.22;7395827;19;20015;-58
2023/08/14 11:30:36;;;;;;;1.48;0.20;;;;;;;18.66;100.00;98809.00;7392380;19;20126;-59